createdAt,value
2022-08-07T00:02:36.475Z,24.87
2022-08-07T00:05:04.016Z,25.07
2022-08-07T00:07:40.518Z,25.87
2022-08-07T00:10:26.481Z,26.30
2022-08-07T00:12:58.044Z,27.63
2022-08-07T00:15:37.940Z,27.90
2022-08-07T00:18:19.697Z,25.43
2022-08-07T00:20:49.560Z,27.00
2022-08-07T00:23:17.976Z,27.07
2022-08-07T00:25:52.511Z,28.07
2022-08-07T00:28:33.541Z,26.37
2022-08-07T00:31:04.571Z,28.57
2022-08-07T00:33:34.991Z,28.30
2022-08-07T00:36:03.513Z,29.57
2022-08-07T00:38:33.205Z,29.73
2022-08-07T00:41:03.204Z,29.23
2022-08-07T00:43:59.326Z,29.73
2022-08-07T00:46:20.046Z,29.53
2022-08-07T00:48:51.822Z,28.60
2022-08-07T00:51:20.735Z,31.83
2022-08-07T00:53:50.428Z,28.53
2022-08-07T00:56:20.772Z,29.70
2022-08-07T00:58:49.611Z,29.77
2022-08-07T01:01:18.440Z,31.57
2022-08-07T01:03:56.693Z,28.20
2022-08-07T01:06:28.803Z,29.30
2022-08-07T01:08:58.545Z,27.73
2022-08-07T01:12:23.261Z,29.73
2022-08-07T01:14:28.706Z,28.27
2022-08-07T01:16:57.335Z,27.03
2022-08-07T01:19:25.576Z,29.10
2022-08-07T01:21:55.581Z,27.87
2022-08-07T01:24:23.953Z,26.30
2022-08-07T01:26:52.778Z,28.03
2022-08-07T01:29:22.292Z,28.53
2022-08-07T01:31:50.613Z,26.50
2022-08-07T01:34:19.125Z,27.47
2022-08-07T01:36:52.635Z,28.83
2022-08-07T01:39:41.087Z,26.10
2022-08-07T01:42:39.220Z,28.60
2022-08-07T01:45:04.043Z,26.33
2022-08-07T01:48:19.072Z,26.80
2022-08-07T01:50:28.553Z,25.07
2022-08-07T01:52:58.394Z,24.03
2022-08-07T01:55:28.757Z,23.33
2022-08-07T01:58:06.516Z,23.97
2022-08-07T02:00:49.292Z,23.10
2022-08-07T02:03:26.420Z,21.73
2022-08-07T02:06:08.937Z,21.17
2022-08-07T02:08:55.914Z,20.70
2022-08-07T02:11:30.882Z,20.73
2022-08-07T02:14:35.489Z,18.40
2022-08-07T02:17:03.161Z,18.63
2022-08-07T02:20:06.688Z,20.37
2022-08-07T02:22:20.677Z,19.17
2022-08-07T02:24:54.244Z,18.83
2022-08-07T02:27:24.271Z,17.40
2022-08-07T02:29:54.647Z,17.50
2022-08-07T02:32:26.975Z,17.37
2022-08-07T02:34:58.608Z,18.17
2022-08-07T02:37:34.271Z,16.13
2022-08-07T02:40:31.222Z,14.93
2022-08-07T02:42:54.702Z,16.20
2022-08-07T02:45:59.001Z,15.53
2022-08-07T02:48:15.557Z,15.63
2022-08-07T02:50:44.571Z,12.90
2022-08-07T02:53:13.585Z,13.23
2022-08-07T02:56:03.413Z,12.30
2022-08-07T02:58:34.126Z,11.57
2022-08-07T03:01:02.961Z,11.20
2022-08-07T03:03:49.276Z,12.13
2022-08-07T03:06:25.975Z,10.67
2022-08-07T03:09:01.326Z,9.83
2022-08-07T03:11:29.620Z,10.13
2022-08-07T03:14:02.666Z,9.83
2022-08-07T03:16:31.010Z,10.00
2022-08-07T03:18:59.308Z,8.77
2022-08-07T03:21:27.577Z,8.90
2022-08-07T03:24:20.376Z,8.07
2022-08-07T03:26:51.279Z,8.93
2022-08-07T03:29:28.387Z,7.90
2022-08-07T03:31:57.455Z,7.03
2022-08-07T03:34:27.554Z,8.00
2022-08-07T03:36:57.370Z,6.70
2022-08-07T03:39:42.205Z,6.20
2022-08-07T03:42:14.539Z,6.87
2022-08-07T03:44:53.067Z,7.20
2022-08-07T03:47:22.795Z,5.73
2022-08-07T03:49:52.263Z,6.53
2022-08-07T03:52:22.785Z,5.57
2022-08-07T03:54:57.458Z,5.17
2022-08-07T03:58:34.045Z,5.57
2022-08-07T04:00:17.432Z,5.07
2022-08-07T04:02:49.546Z,4.80
2022-08-07T04:05:17.856Z,5.27
2022-08-07T04:07:52.558Z,4.33
2022-08-07T04:10:20.826Z,4.10
2022-08-07T04:12:52.459Z,4.53
2022-08-07T04:15:23.918Z,3.87
2022-08-07T04:18:31.784Z,4.10
2022-08-07T04:20:54.403Z,4.00
2022-08-07T04:23:23.383Z,3.70
2022-08-07T04:26:11.415Z,3.43
2022-08-07T04:28:39.887Z,3.03
2022-08-07T04:31:20.097Z,2.87
2022-08-07T04:34:00.337Z,3.10
2022-08-07T04:36:28.653Z,2.90
2022-08-07T04:38:58.098Z,3.20
2022-08-07T04:41:26.556Z,2.37
2022-08-07T04:44:11.863Z,2.97
2022-08-07T04:47:04.155Z,2.97
2022-08-07T04:49:39.199Z,2.37
2022-08-07T04:52:09.572Z,2.20
2022-08-07T04:54:41.080Z,3.20
2022-08-07T04:58:07.701Z,2.37
2022-08-07T05:00:14.482Z,2.27
2022-08-07T05:02:49.877Z,2.23
2022-08-07T05:05:53.130Z,1.60
2022-08-07T05:08:08.489Z,2.30
2022-08-07T05:10:37.167Z,2.30
2022-08-07T05:14:44.431Z,2.13
2022-08-07T05:15:55.914Z,1.60
2022-08-07T05:18:29.675Z,1.73
2022-08-07T05:20:58.904Z,1.87
2022-08-07T05:23:30.925Z,1.50
2022-08-07T05:26:13.050Z,1.70
2022-08-07T05:28:48.470Z,1.67
2022-08-07T05:31:18.518Z,1.77
2022-08-07T05:33:51.184Z,1.50
2022-08-07T05:36:35.645Z,1.33
2022-08-07T05:40:04.948Z,1.57
2022-08-07T05:42:02.809Z,1.30
2022-08-07T05:44:32.947Z,1.43
2022-08-07T05:47:01.347Z,1.23
2022-08-07T05:49:40.861Z,1.23
2022-08-07T05:52:11.784Z,1.33
2022-08-07T05:54:44.411Z,1.30
2022-08-07T05:57:22.238Z,1.27
2022-08-07T05:59:55.735Z,1.03
2022-08-07T06:02:29.059Z,1.23
2022-08-07T06:04:59.911Z,1.13
2022-08-07T06:08:13.017Z,1.13
2022-08-07T06:10:16.508Z,1.27
2022-08-07T06:12:44.851Z,0.80
2022-08-07T06:15:15.961Z,0.73
2022-08-07T06:17:53.620Z,0.90
2022-08-07T06:20:25.496Z,0.90
2022-08-07T06:23:02.090Z,0.93
2022-08-07T06:25:54.749Z,0.80
2022-08-07T06:28:27.080Z,0.90
2022-08-07T06:30:56.537Z,0.93
2022-08-07T06:33:26.801Z,0.80
2022-08-07T06:36:12.224Z,0.97
2022-08-07T06:38:59.494Z,1.50
2022-08-07T06:42:02.861Z,1.07
2022-08-07T06:44:20.488Z,0.90
2022-08-07T06:46:53.274Z,0.90
2022-08-07T06:49:28.390Z,0.80
2022-08-07T06:51:59.589Z,0.70
2022-08-07T06:55:32.758Z,0.67
2022-08-07T06:57:39.380Z,0.70
2022-08-07T07:00:18.327Z,0.80
2022-08-07T07:02:48.524Z,0.90
2022-08-07T07:06:04.638Z,0.77
2022-08-07T07:08:18.732Z,0.60
2022-08-07T07:10:57.143Z,0.97
2022-08-07T07:13:55.582Z,1.50
2022-08-07T07:16:19.799Z,1.50
2022-08-07T07:18:49.496Z,1.90
2022-08-07T07:21:19.748Z,1.70
2022-08-07T07:24:06.533Z,1.90
2022-08-07T07:26:38.170Z,2.20
2022-08-07T07:29:39.904Z,2.50
2022-08-07T07:31:59.258Z,2.30
2022-08-07T07:34:30.785Z,2.40
2022-08-07T07:37:14.408Z,2.93
2022-08-07T07:39:54.338Z,2.70
2022-08-07T07:42:32.546Z,3.27
2022-08-07T07:45:01.114Z,2.80
2022-08-07T07:47:29.439Z,2.83
2022-08-07T07:50:33.338Z,2.73
2022-08-07T07:52:47.186Z,2.60
2022-08-07T07:55:16.928Z,2.33
2022-08-07T07:57:53.106Z,2.80
2022-08-07T08:00:31.427Z,2.90
2022-08-07T08:03:16.282Z,2.13
2022-08-07T08:05:57.620Z,2.40
2022-08-07T08:08:34.909Z,2.67
2022-08-07T08:11:08.418Z,2.63
2022-08-07T08:13:53.181Z,2.97
2022-08-07T08:16:25.076Z,3.13
2022-08-07T08:18:53.674Z,3.30
2022-08-07T08:22:00.488Z,2.47
2022-08-07T08:24:46.597Z,2.83
2022-08-07T08:27:16.752Z,2.60
2022-08-07T08:29:55.636Z,2.50
2022-08-07T08:32:38.620Z,2.67
2022-08-07T08:35:08.912Z,2.70
2022-08-07T08:38:00.325Z,3.30
2022-08-07T08:40:28.853Z,3.00
2022-08-07T08:43:00.491Z,4.63
2022-08-07T08:45:41.684Z,7.60
2022-08-07T08:48:20.690Z,8.70
2022-08-07T08:50:51.734Z,7.90
2022-08-07T08:53:21.881Z,6.57
2022-08-07T08:55:53.143Z,4.77
2022-08-07T08:58:29.641Z,4.47
2022-08-07T09:01:01.339Z,4.77
2022-08-07T09:03:48.064Z,4.90
2022-08-07T09:06:21.300Z,5.03
2022-08-07T09:08:50.916Z,4.70
2022-08-07T09:11:24.771Z,3.50
2022-08-07T09:14:12.311Z,3.70
2022-08-07T09:16:46.607Z,3.83
2022-08-07T09:19:51.609Z,4.03
2022-08-07T09:24:29.451Z,4.20
2022-08-07T09:25:14.534Z,4.60
2022-08-07T09:27:59.797Z,4.60
2022-08-07T09:30:31.815Z,5.10
2022-08-07T09:33:05.320Z,5.13
2022-08-07T09:36:04.741Z,6.20
2022-08-07T09:38:27.588Z,6.13
2022-08-07T09:40:59.981Z,7.10
2022-08-07T09:44:03.411Z,8.47
2022-08-07T09:47:50.518Z,9.07
2022-08-07T09:50:00.762Z,9.83
2022-08-07T09:52:15.231Z,9.63
2022-08-07T09:54:46.196Z,10.23
2022-08-07T09:57:25.653Z,11.40
2022-08-07T10:00:02.699Z,10.67
2022-08-07T10:02:55.875Z,11.97
2022-08-07T10:06:00.040Z,12.63
2022-08-07T10:08:49.592Z,11.10
2022-08-07T10:12:01.754Z,11.87
2022-08-07T10:14:14.596Z,11.20
2022-08-07T10:17:02.688Z,11.67
2022-08-07T10:19:38.659Z,10.90
2022-08-07T10:22:33.527Z,12.67
2022-08-07T10:25:14.289Z,11.23
2022-08-07T10:27:51.400Z,10.47
2022-08-07T10:30:20.752Z,10.23
2022-08-07T10:32:59.642Z,10.33
2022-08-07T10:35:53.562Z,9.70
2022-08-07T10:38:42.211Z,10.70
2022-08-07T10:41:14.041Z,9.33
2022-08-07T10:44:07.800Z,7.90
2022-08-07T10:46:38.008Z,8.57
2022-08-07T10:49:10.265Z,8.23
2022-08-07T10:52:02.338Z,8.60
2022-08-07T10:54:31.029Z,8.50
2022-08-07T10:57:04.575Z,8.83
2022-08-07T10:59:37.369Z,8.20
2022-08-07T11:02:12.248Z,7.80
2022-08-07T11:05:03.182Z,8.30
2022-08-07T11:07:59.205Z,9.57
2022-08-07T11:10:30.358Z,8.67
2022-08-07T11:13:01.996Z,8.93
2022-08-07T11:15:32.192Z,9.33
2022-08-07T11:18:03.424Z,8.67
2022-08-07T11:20:35.403Z,9.00
2022-08-07T11:23:07.292Z,9.67
2022-08-07T11:25:48.209Z,8.77
2022-08-07T11:28:19.060Z,8.50
2022-08-07T11:30:48.697Z,9.73
2022-08-07T11:33:59.703Z,8.97
2022-08-07T11:36:15.339Z,9.83
2022-08-07T11:38:55.858Z,10.03
2022-08-07T11:41:29.677Z,11.40
2022-08-07T11:44:18.561Z,10.30
2022-08-07T11:46:50.681Z,11.03
2022-08-07T11:50:11.534Z,10.33
2022-08-07T11:52:37.710Z,12.50
2022-08-07T11:55:13.192Z,10.70
2022-08-07T11:58:00.592Z,9.63
2022-08-07T12:00:31.513Z,10.47
2022-08-07T12:03:41.682Z,10.20
2022-08-07T12:06:37.904Z,9.43
2022-08-07T12:09:09.585Z,10.00
2022-08-07T12:12:09.669Z,9.37
2022-08-07T12:14:36.455Z,9.13
2022-08-07T12:17:07.108Z,8.23
2022-08-07T12:20:02.753Z,7.83
2022-08-07T12:22:46.996Z,7.83
2022-08-07T12:26:21.453Z,7.37
2022-08-07T12:28:30.929Z,7.17
2022-08-07T12:31:01.557Z,7.67
2022-08-07T12:34:01.068Z,6.53
2022-08-07T12:36:20.372Z,6.90
2022-08-07T12:39:09.280Z,6.70
2022-08-07T12:41:52.120Z,6.50
2022-08-07T12:44:21.267Z,6.13
2022-08-07T12:47:00.284Z,7.17
2022-08-07T12:49:44.380Z,5.80
2022-08-07T12:52:22.883Z,6.50
2022-08-07T12:55:00.152Z,6.80
2022-08-07T12:57:39.255Z,7.57
2022-08-07T13:00:33.033Z,7.07
2022-08-07T13:03:09.735Z,7.70
2022-08-07T13:06:03.795Z,7.03
2022-08-07T13:08:39.343Z,6.40
2022-08-07T13:11:10.638Z,6.57
2022-08-07T13:13:50.174Z,6.23
2022-08-07T13:16:22.083Z,5.70
2022-08-07T13:18:53.767Z,5.43
2022-08-07T13:21:51.216Z,4.97
2022-08-07T13:24:12.930Z,4.47
2022-08-07T13:26:46.192Z,4.87
2022-08-07T13:29:16.131Z,4.73
2022-08-07T13:31:57.371Z,4.00
2022-08-07T13:34:35.960Z,4.93
2022-08-07T13:37:10.844Z,4.00
2022-08-07T13:40:33.367Z,3.90
2022-08-07T13:42:29.476Z,4.37
2022-08-07T13:46:07.298Z,4.00
2022-08-07T13:48:05.253Z,3.90
2022-08-07T13:50:45.208Z,3.73
2022-08-07T13:53:25.331Z,3.20
2022-08-07T13:56:04.358Z,3.53
2022-08-07T13:58:56.726Z,3.07
2022-08-07T14:01:25.378Z,2.90
2022-08-07T14:04:07.420Z,3.20
2022-08-07T14:06:38.945Z,2.70
2022-08-07T14:09:07.476Z,2.07
2022-08-07T14:11:53.797Z,2.20
2022-08-07T14:14:28.370Z,2.87
2022-08-07T14:16:57.613Z,2.30
2022-08-07T14:20:43.775Z,1.87
2022-08-07T14:22:34.821Z,2.50
2022-08-07T14:25:05.249Z,2.20
2022-08-07T14:28:12.585Z,1.73
2022-08-07T14:30:32.890Z,2.00
2022-08-07T14:33:04.376Z,1.90
2022-08-07T14:35:45.541Z,1.63
2022-08-07T14:38:26.615Z,2.03
2022-08-07T14:41:00.871Z,1.70
2022-08-07T14:46:31.087Z,1.63
2022-08-07T14:49:57.702Z,1.90
2022-08-07T14:52:03.690Z,1.30
2022-08-07T14:54:41.658Z,1.40
2022-08-07T14:57:14.879Z,1.60
2022-08-07T15:00:03.224Z,1.43
2022-08-07T15:02:34.466Z,1.57
2022-08-07T15:05:03.423Z,1.73
2022-08-07T15:13:13.827Z,1.30
2022-08-07T15:15:43.041Z,1.20
2022-08-07T15:21:04.002Z,1.20
2022-08-07T15:25:02.247Z,1.20
2022-08-07T15:26:28.751Z,1.20
2022-08-07T15:28:59.445Z,1.30
2022-08-07T15:31:57.663Z,1.23
2022-08-07T15:34:28.765Z,1.33
2022-08-07T15:37:02.832Z,1.00
2022-08-07T15:39:56.991Z,1.23
2022-08-07T15:42:51.763Z,1.10
2022-08-07T15:45:56.587Z,1.20
2022-08-07T15:48:18.586Z,1.03
2022-08-07T15:53:51.910Z,1.10
2022-08-07T15:56:21.736Z,0.90
2022-08-07T15:58:55.097Z,0.80
2022-08-07T16:01:24.333Z,1.10
2022-08-07T16:04:14.541Z,1.03
2022-08-07T16:06:44.776Z,0.80
2022-08-07T16:09:22.299Z,1.10
2022-08-07T16:11:57.528Z,1.00
2022-08-07T16:14:34.623Z,1.47
2022-08-07T16:17:15.918Z,1.17
2022-08-07T16:19:59.543Z,1.10
2022-08-07T16:22:38.680Z,1.40
2022-08-07T16:25:52.691Z,1.13
2022-08-07T16:30:05.939Z,1.33
2022-08-07T16:31:52.026Z,0.80
2022-08-07T16:34:09.915Z,0.97
2022-08-07T16:37:02.830Z,1.10
2022-08-07T16:39:49.516Z,1.00
2022-08-07T16:42:27.127Z,1.10
2022-08-07T16:45:15.084Z,1.20
2022-08-07T16:48:02.593Z,1.00
2022-08-07T16:50:44.727Z,0.97
2022-08-07T16:54:01.623Z,0.90
2022-08-07T16:56:20.550Z,0.90
2022-08-07T16:59:10.621Z,0.80
2022-08-07T17:01:52.962Z,1.20
2022-08-07T17:04:29.670Z,1.30
2022-08-07T17:07:03.135Z,1.10
2022-08-07T17:10:08.388Z,1.30
2022-08-07T17:12:34.356Z,0.93
2022-08-07T17:15:05.985Z,0.93
2022-08-07T17:17:46.144Z,1.00
2022-08-07T17:20:21.442Z,0.90
2022-08-07T17:22:50.334Z,1.17
2022-08-07T17:25:51.152Z,1.63
2022-08-07T17:28:11.614Z,1.87
2022-08-07T17:30:58.174Z,4.10
2022-08-07T17:34:08.584Z,4.57
2022-08-07T17:36:20.909Z,3.63
2022-08-07T17:38:56.267Z,3.77
2022-08-07T17:42:04.234Z,3.53
2022-08-07T17:44:33.701Z,2.80
2022-08-07T17:47:08.714Z,3.17
2022-08-07T17:49:46.259Z,2.20
2022-08-07T17:52:20.083Z,2.00
2022-08-07T17:55:04.403Z,2.23
2022-08-07T17:57:58.441Z,1.90
2022-08-07T18:00:33.019Z,2.13
2022-08-07T18:03:09.326Z,1.03
2022-08-07T18:06:01.736Z,1.50
2022-08-07T18:08:31.026Z,1.50
2022-08-07T18:12:06.775Z,1.47
2022-08-07T18:13:51.778Z,1.20
2022-08-07T18:16:31.207Z,1.93
2022-08-07T18:21:07.527Z,2.00
2022-08-07T18:22:03.402Z,2.43
2022-08-07T18:24:37.141Z,1.67
2022-08-07T18:27:11.276Z,1.97
2022-08-07T18:30:06.694Z,2.47
2022-08-07T18:33:10.895Z,2.20
2022-08-07T18:35:51.790Z,1.70
2022-08-07T18:38:56.989Z,2.57
2022-08-07T18:41:21.012Z,2.60
2022-08-07T18:43:57.663Z,2.60
2022-08-07T18:46:29.875Z,2.53
2022-08-07T18:50:19.124Z,1.80
2022-08-07T18:52:37.533Z,1.97
2022-08-07T18:54:43.607Z,1.87
2022-08-07T18:57:30.137Z,1.93
2022-08-07T19:00:04.468Z,1.37
2022-08-07T19:02:55.612Z,1.50
2022-08-07T19:05:27.634Z,1.30
2022-08-07T19:08:18.495Z,1.50
2022-08-07T19:10:51.516Z,1.37
2022-08-07T19:13:25.008Z,1.90
2022-08-07T19:16:05.024Z,1.77
2022-08-07T19:18:46.439Z,1.50
2022-08-07T19:21:47.593Z,0.93
2022-08-07T19:24:06.958Z,1.50
2022-08-07T19:26:55.625Z,1.50
2022-08-07T19:31:03.821Z,1.47
2022-08-07T19:32:25.538Z,1.30
2022-08-07T19:34:59.368Z,1.60
2022-08-07T19:37:57.151Z,1.37
2022-08-07T19:40:16.790Z,1.13
2022-08-07T19:42:58.858Z,0.90
2022-08-07T19:46:04.874Z,1.20
2022-08-07T19:48:18.127Z,1.27
2022-08-07T19:50:53.109Z,1.00
2022-08-07T19:54:32.104Z,1.07
2022-08-07T19:58:03.552Z,1.53
2022-08-07T19:58:59.849Z,1.43
2022-08-07T20:01:52.361Z,1.20
2022-08-07T20:04:31.876Z,1.33
2022-08-07T20:07:09.103Z,1.53
2022-08-07T20:10:36.106Z,1.60
2022-08-07T20:12:31.813Z,1.23
2022-08-07T20:15:03.704Z,1.73
2022-08-07T20:17:35.970Z,1.30
2022-08-07T20:20:07.795Z,1.40
2022-08-07T20:22:40.005Z,1.20
2022-08-07T20:25:12.537Z,1.40
2022-08-07T20:27:58.285Z,1.23
2022-08-07T20:30:30.891Z,1.47
2022-08-07T20:33:00.868Z,1.77
2022-08-07T20:35:34.261Z,1.40
2022-08-07T20:38:06.325Z,1.63
2022-08-07T20:40:41.180Z,1.70
2022-08-07T20:43:19.690Z,1.90
2022-08-07T20:46:27.105Z,2.23
2022-08-07T20:48:58.031Z,2.77
2022-08-07T20:51:30.018Z,2.97
2022-08-07T20:54:03.245Z,3.37
2022-08-07T20:56:41.125Z,2.70
2022-08-07T21:00:05.317Z,3.30
2022-08-07T21:02:05.757Z,3.00
2022-08-07T21:04:52.735Z,2.20
2022-08-07T21:07:29.057Z,2.30
2022-08-07T21:10:00.208Z,2.10
2022-08-07T21:12:31.165Z,1.80
2022-08-07T21:15:01.304Z,1.63
2022-08-07T21:18:05.963Z,1.30
2022-08-07T21:20:29.525Z,1.47
2022-08-07T21:23:07.724Z,1.70
2022-08-07T21:25:43.948Z,1.57
2022-08-07T21:28:48.212Z,1.70
2022-08-07T21:31:15.566Z,1.90
2022-08-07T21:33:45.851Z,2.10
2022-08-07T21:36:31.415Z,1.87
2022-08-07T21:39:46.469Z,1.53
2022-08-07T21:42:02.470Z,1.20
2022-08-07T21:44:33.647Z,1.93
2022-08-07T21:47:12.106Z,1.17
2022-08-07T21:50:01.905Z,1.40
2022-08-07T21:52:38.430Z,1.40
2022-08-07T21:55:11.105Z,1.83
2022-08-07T21:57:44.793Z,1.67
2022-08-07T22:00:22.434Z,1.30
2022-08-07T22:02:55.207Z,1.60
2022-08-07T22:05:44.619Z,1.43
2022-08-07T22:08:14.331Z,1.37
2022-08-07T22:10:47.079Z,1.33
2022-08-07T22:13:16.104Z,1.30
2022-08-07T22:16:42.598Z,1.13
2022-08-07T22:18:34.995Z,1.20
2022-08-07T22:21:08.976Z,1.33
2022-08-07T22:23:44.861Z,1.33
2022-08-07T22:26:14.176Z,1.00
2022-08-07T22:28:48.302Z,1.40
2022-08-07T22:31:56.032Z,1.10
2022-08-07T22:34:13.675Z,1.23
2022-08-07T22:36:46.432Z,0.93
2022-08-07T22:39:18.905Z,1.03
2022-08-07T22:42:03.098Z,1.00
2022-08-07T22:44:38.797Z,1.00
2022-08-07T22:47:30.238Z,1.07
2022-08-07T22:50:05.802Z,0.90
2022-08-07T22:52:43.406Z,1.10
2022-08-07T22:55:22.828Z,0.73
2022-08-07T22:58:04.118Z,1.00
2022-08-07T23:00:33.370Z,0.90
2022-08-07T23:03:11.709Z,0.70
2022-08-07T23:06:10.186Z,0.80
2022-08-07T23:08:46.151Z,0.90
2022-08-07T23:11:23.533Z,0.80
2022-08-07T23:14:10.515Z,0.80
2022-08-07T23:16:54.920Z,1.03
2022-08-07T23:19:51.941Z,0.70
2022-08-07T23:22:24.504Z,0.70
2022-08-07T23:24:56.206Z,0.90
2022-08-07T23:27:33.817Z,1.00
2022-08-07T23:30:38.748Z,0.63
2022-08-07T23:34:36.480Z,1.10
2022-08-07T23:35:48.975Z,0.80
2022-08-07T23:38:42.367Z,0.90
2022-08-07T23:41:15.739Z,0.80
2022-08-07T23:44:01.953Z,0.70
2022-08-07T23:46:38.787Z,0.50
2022-08-07T23:49:17.912Z,0.83
2022-08-07T23:52:58.287Z,0.73
2022-08-07T23:54:45.982Z,0.50
2022-08-07T23:57:19.196Z,0.90
